Time;durP1;ratioP1;P1;durP2;ratioP2;P2;SDS_P1;SDS_P2;PMS_P1;PMS_P2;Temp;Humidity;BMP_temperature;BMP_pressure;BME280_temperature;BME280_humidity;BME280_pressure;Samples;Min_cycle;Max_cycle;Signal;HPM_P1;HPM_P2
2023/12/29 00:01:59;;;;;;;;;;;10.30;99.90;;;;;;4977321;28;19936;-67
2023/12/29 00:04:25;;;;;;;;;;;10.30;99.90;;;;;;4968739;28;20510;-68
2023/12/29 00:06:51;;;;;;;;;;;10.20;99.90;;;;;;4978239;28;19932;-67
2023/12/29 00:09:20;;;;;;;;;;;10.20;99.90;;;;;;4956613;28;19925;-67
2023/12/29 00:11:50;;;;;;;;;;;10.20;99.90;;;;;;4979998;28;20692;-67
2023/12/29 00:14:16;;;;;;;;;;;10.20;99.90;;;;;;4946283;28;19925;-68
2023/12/29 00:16:43;;;;;;;;;;;10.10;99.90;;;;;;4980595;28;19932;-67
2023/12/29 00:19:10;;;;;;;;;;;10.10;99.90;;;;;;4949480;28;19933;-67
2023/12/29 00:21:36;;;;;;;;;;;10.10;99.90;;;;;;4971039;28;19936;-68
2023/12/29 00:24:02;;;;;;;;;;;10.10;99.90;;;;;;4969560;28;19924;-68
2023/12/29 00:26:28;;;;;;;;;;;10.10;99.90;;;;;;4991371;28;19925;-67
2023/12/29 00:28:54;;;;;;;;;;;10.00;99.90;;;;;;4949189;28;19932;-68
2023/12/29 00:31:20;;;;;;;;;;;10.10;99.90;;;;;;4970660;28;19929;-68
2023/12/29 00:33:46;;;;;;;;;;;10.10;99.90;;;;;;4968803;28;19997;-68
2023/12/29 00:36:16;;;;;;;;;;;10.10;99.90;;;;;;4994810;28;20006;-68
2023/12/29 00:38:42;;;;;;;;;;;10.10;99.90;;;;;;4947795;28;19936;-67
2023/12/29 00:41:08;;;;;;;;;;;10.10;99.90;;;;;;4977977;28;19944;-71
2023/12/29 00:43:37;;;;;;;;;;;10.10;99.90;;;;;;4939531;28;19968;-68
2023/12/29 00:46:03;;;;;;;;;;;10.00;99.90;;;;;;4985860;28;20582;-67
2023/12/29 00:48:49;;;;;;;;;;;10.00;99.90;;;;;;4953216;28;19925;-74
2023/12/29 00:51:39;;;;;;;;;;;10.00;99.90;;;;;;4984590;28;19925;-72
2023/12/29 00:54:05;;;;;;;;;;;10.00;99.90;;;;;;4943477;28;19925;-66
2023/12/29 00:56:31;;;;;;;;;;;9.90;99.90;;;;;;4973936;28;19925;-67
2023/12/29 00:58:56;;;;;;;;;;;9.90;99.90;;;;;;4969515;28;20474;-69
2023/12/29 01:01:22;;;;;;;;;;;9.80;99.90;;;;;;4988656;28;19929;-71
2023/12/29 01:03:48;;;;;;;;;;;9.70;99.90;;;;;;4970076;28;22216;-71
2023/12/29 01:06:14;;;;;;;;;;;9.60;99.90;;;;;;4991564;28;19925;-71
2023/12/29 01:08:41;;;;;;;;;;;9.50;99.90;;;;;;4961297;28;19935;-69
2023/12/29 01:11:07;;;;;;;;;;;9.50;99.90;;;;;;4989553;28;19925;-71
2023/12/29 01:13:33;;;;;;;;;;;9.50;99.90;;;;;;4967058;28;19967;-70
2023/12/29 01:15:59;;;;;;;;;;;9.40;99.90;;;;;;5003832;28;19924;-71
2023/12/29 01:18:25;;;;;;;;;;;9.50;99.90;;;;;;4972552;28;20498;-71
2023/12/29 01:20:51;;;;;;;;;;;9.40;99.90;;;;;;5008769;28;19936;-71
2023/12/29 01:23:18;;;;;;;;;;;9.50;99.90;;;;;;4962441;28;19924;-69
2023/12/29 01:25:44;;;;;;;;;;;9.50;99.90;;;;;;4994226;28;19932;-70
2023/12/29 01:28:10;;;;;;;;;;;9.50;99.90;;;;;;4959436;28;20422;-71
2023/12/29 01:30:35;;;;;;;;;;;9.40;99.90;;;;;;4995983;28;19925;-69
2023/12/29 01:33:01;;;;;;;;;;;9.40;99.90;;;;;;4962012;28;19930;-70
2023/12/29 01:35:27;;;;;;;;;;;9.40;99.90;;;;;;4983095;28;19925;-70
2023/12/29 01:37:55;;;;;;;;;;;9.40;99.90;;;;;;4976231;28;19925;-69
2023/12/29 01:40:21;;;;;;;;;;;9.40;99.90;;;;;;4977834;28;20043;-69
2023/12/29 01:42:47;;;;;;;;;;;9.40;99.90;;;;;;4958521;28;19968;-69
2023/12/29 01:45:23;;;;;;;;;;;9.40;99.90;;;;;;4963616;28;20012;-69
2023/12/29 01:47:50;;;;;;;;;;;9.50;99.90;;;;;;4955168;28;19924;-69
2023/12/29 01:50:17;;;;;;;;;;;9.50;99.90;;;;;;4994643;28;19929;-69
2023/12/29 01:52:43;;;;;;;;;;;9.50;99.90;;;;;;5002696;28;20438;-69
2023/12/29 01:55:12;;;;;;;;;;;9.50;99.90;;;;;;4964499;28;19929;-69
2023/12/29 01:57:38;;;;;;;;;;;9.50;99.90;;;;;;4985161;28;19952;-70
2023/12/29 02:00:05;;;;;;;;;;;9.60;99.90;;;;;;4964328;28;19929;-73
2023/12/29 02:02:32;;;;;;;;;;;9.50;99.90;;;;;;4991033;28;19924;-71
2023/12/29 02:04:58;;;;;;;;;;;9.50;99.90;;;;;;4955901;28;20450;-69
2023/12/29 02:07:24;;;;;;;;;;;9.50;99.90;;;;;;4990077;28;19925;-70
2023/12/29 02:09:51;;;;;;;;;;;9.50;99.90;;;;;;4963776;28;19948;-72
2023/12/29 02:12:17;;;;;;;;;;;9.50;99.90;;;;;;4991490;28;19925;-73
2023/12/29 02:14:43;;;;;;;;;;;9.50;99.90;;;;;;4944610;28;19932;-71
2023/12/29 02:17:12;;;;;;;;;;;9.50;99.90;;;;;;4986194;28;20557;-75
2023/12/29 02:19:44;;;;;;;;;;;8.90;99.90;;;;;;4949631;28;19933;-74
2023/12/29 02:22:10;;;;;;;;;;;8.10;99.90;;;;;;4989522;28;19931;-74
2023/12/29 02:24:37;;;;;;;;;;;7.70;99.90;;;;;;4971631;28;19929;-73
2023/12/29 02:27:09;;;;;;;;;;;7.40;99.90;;;;;;4990122;28;19929;-73
2023/12/29 02:29:36;;;;;;;;;;;7.40;99.90;;;;;;4954001;28;19933;-73
2023/12/29 02:32:04;;;;;;;;;;;7.40;99.90;;;;;;5011261;28;19925;-72
2023/12/29 02:34:32;;;;;;;;;;;7.50;99.90;;;;;;4961787;28;19925;-71
2023/12/29 02:36:58;;;;;;;;;;;7.80;99.90;;;;;;4989219;28;19925;-73
2023/12/29 02:39:24;;;;;;;;;;;8.60;99.90;;;;;;4960797;28;20004;-74
2023/12/29 02:41:50;;;;;;;;;;;9.00;99.90;;;;;;4988537;28;19929;-78
2023/12/29 02:44:16;;;;;;;;;;;9.20;99.90;;;;;;4943499;28;19936;-72
2023/12/29 02:46:42;;;;;;;;;;;9.40;99.90;;;;;;4984915;28;20059;-70
2023/12/29 02:49:12;;;;;;;;;;;9.50;99.90;;;;;;4948095;28;20500;-72
2023/12/29 02:51:39;;;;;;;;;;;9.50;99.90;;;;;;4982603;28;20502;-71
2023/12/29 02:54:05;;;;;;;;;;;9.50;99.90;;;;;;4974918;28;19931;-71
2023/12/29 02:56:32;;;;;;;;;;;9.60;99.90;;;;;;4989485;28;19925;-71
2023/12/29 02:58:57;;;;;;;;;;;9.60;99.90;;;;;;4956672;28;20292;-73
2023/12/29 03:01:23;;;;;;;;;;;9.60;99.90;;;;;;4986754;28;21056;-71
2023/12/29 03:03:49;;;;;;;;;;;9.60;99.90;;;;;;4966254;28;19936;-71
2023/12/29 03:06:15;;;;;;;;;;;9.70;99.90;;;;;;5003662;28;22634;-71
2023/12/29 03:08:41;;;;;;;;;;;9.70;99.90;;;;;;4963394;28;19925;-71
2023/12/29 03:11:07;;;;;;;;;;;9.70;99.90;;;;;;4966790;28;19936;-70
2023/12/29 03:13:33;;;;;;;;;;;9.70;99.90;;;;;;4953956;28;19936;-69
2023/12/29 03:15:59;;;;;;;;;;;9.80;99.90;;;;;;4973312;28;19925;-70
2023/12/29 03:18:25;;;;;;;;;;;9.80;99.90;;;;;;4948465;28;19932;-70
2023/12/29 03:20:51;;;;;;;;;;;9.80;99.90;;;;;;4981116;28;19940;-72
2023/12/29 03:23:17;;;;;;;;;;;9.80;99.90;;;;;;4977639;28;19929;-73
2023/12/29 03:25:43;;;;;;;;;;;9.80;99.90;;;;;;4991342;28;19932;-72
2023/12/29 03:28:09;;;;;;;;;;;9.90;99.90;;;;;;4949802;28;19933;-74
2023/12/29 03:30:35;;;;;;;;;;;9.90;99.90;;;;;;4981542;28;19932;-73
2023/12/29 03:33:01;;;;;;;;;;;10.00;99.90;;;;;;4951239;28;20545;-73
2023/12/29 03:35:27;;;;;;;;;;;10.00;99.90;;;;;;4958143;28;20035;-73
2023/12/29 03:37:53;;;;;;;;;;;10.00;99.90;;;;;;4951697;28;19929;-71
2023/12/29 03:40:19;;;;;;;;;;;9.90;99.90;;;;;;4968481;28;20064;-72
2023/12/29 03:42:45;;;;;;;;;;;9.90;99.90;;;;;;4964553;28;20483;-73
2023/12/29 03:45:11;;;;;;;;;;;9.80;99.90;;;;;;4970970;28;19933;-72
2023/12/29 03:47:37;;;;;;;;;;;9.90;99.90;;;;;;4979126;28;19929;-72
2023/12/29 03:50:03;;;;;;;;;;;9.90;99.90;;;;;;4952528;28;19929;-70
2023/12/29 03:52:29;;;;;;;;;;;9.90;99.90;;;;;;4973109;28;19929;-72
2023/12/29 03:54:58;;;;;;;;;;;9.90;99.90;;;;;;4947088;28;19925;-73
2023/12/29 03:57:24;;;;;;;;;;;9.90;99.90;;;;;;4959761;28;19924;-70
2023/12/29 03:59:49;;;;;;;;;;;9.80;99.90;;;;;;4936414;28;19936;-72
2023/12/29 04:02:17;;;;;;;;;;;9.80;99.90;;;;;;4983117;28;20247;-73
2023/12/29 04:04:43;;;;;;;;;;;9.70;99.90;;;;;;4951141;28;19932;-69
2023/12/29 04:07:09;;;;;;;;;;;9.70;99.90;;;;;;4981181;28;19944;-69
2023/12/29 04:09:35;;;;;;;;;;;9.80;99.90;;;;;;4959920;28;19925;-68
2023/12/29 04:12:01;;;;;;;;;;;9.70;99.90;;;;;;4983537;28;19936;-68
2023/12/29 04:14:26;;;;;;;;;;;9.70;99.90;;;;;;4954891;28;19956;-69
2023/12/29 04:16:53;;;;;;;;;;;9.70;99.90;;;;;;4979547;28;19925;-68
2023/12/29 04:19:19;;;;;;;;;;;9.60;99.90;;;;;;4958768;28;19925;-68
2023/12/29 04:21:44;;;;;;;;;;;9.60;99.90;;;;;;4973197;28;19928;-68
2023/12/29 04:24:10;;;;;;;;;;;9.60;99.90;;;;;;4952380;28;19939;-68
2023/12/29 04:26:36;;;;;;;;;;;9.60;99.90;;;;;;4981551;28;19974;-67
2023/12/29 04:29:02;;;;;;;;;;;9.60;99.90;;;;;;4945307;28;19925;-67
2023/12/29 04:31:28;;;;;;;;;;;9.60;99.90;;;;;;4978353;28;20339;-68
2023/12/29 04:33:54;;;;;;;;;;;9.60;99.90;;;;;;4970305;28;19925;-67
2023/12/29 04:36:20;;;;;;;;;;;9.60;99.90;;;;;;4980832;28;19925;-68
2023/12/29 04:38:46;;;;;;;;;;;9.50;99.90;;;;;;4946817;28;19925;-67
2023/12/29 04:41:13;;;;;;;;;;;9.50;99.90;;;;;;4978164;28;20010;-67
2023/12/29 04:43:39;;;;;;;;;;;9.50;99.90;;;;;;4960410;28;19924;-67
2023/12/29 04:46:04;;;;;;;;;;;9.50;99.90;;;;;;4987199;28;20397;-67
2023/12/29 04:48:30;;;;;;;;;;;9.50;99.90;;;;;;4948340;28;19935;-68
2023/12/29 04:50:56;;;;;;;;;;;9.40;99.90;;;;;;4976241;28;21310;-67
2023/12/29 04:53:22;;;;;;;;;;;9.40;99.90;;;;;;4966685;28;20131;-68
2023/12/29 04:55:48;;;;;;;;;;;9.40;99.90;;;;;;4994643;28;19925;-67
2023/12/29 04:58:14;;;;;;;;;;;9.40;99.90;;;;;;4950470;28;19929;-68
2023/12/29 05:00:40;;;;;;;;;;;9.50;99.90;;;;;;4975480;28;20541;-67
2023/12/29 05:03:06;;;;;;;;;;;9.50;99.90;;;;;;4950455;28;19930;-67
2023/12/29 05:05:32;;;;;;;;;;;9.50;99.90;;;;;;4983551;28;19932;-68
2023/12/29 05:07:58;;;;;;;;;;;9.60;99.90;;;;;;4951869;28;20299;-67
2023/12/29 05:10:23;;;;;;;;;;;9.70;99.90;;;;;;4969296;28;19931;-67
2023/12/29 05:12:49;;;;;;;;;;;9.70;99.90;;;;;;4952225;28;20019;-68
2023/12/29 05:15:15;;;;;;;;;;;9.70;99.90;;;;;;5008112;28;19932;-68
2023/12/29 05:17:41;;;;;;;;;;;9.70;99.90;;;;;;4991851;28;19929;-67
2023/12/29 05:20:07;;;;;;;;;;;9.70;99.90;;;;;;4945580;28;19929;-67
2023/12/29 05:22:33;;;;;;;;;;;9.70;99.90;;;;;;4978532;28;19929;-69
2023/12/29 05:25:00;;;;;;;;;;;9.80;99.90;;;;;;4943006;28;19931;-68
2023/12/29 05:27:26;;;;;;;;;;;9.80;99.90;;;;;;4976742;28;19932;-69
2023/12/29 05:29:52;;;;;;;;;;;9.70;99.90;;;;;;4962832;28;19924;-69
2023/12/29 05:32:18;;;;;;;;;;;9.70;99.90;;;;;;4979886;28;19939;-70
2023/12/29 05:34:44;;;;;;;;;;;9.70;99.90;;;;;;4933534;28;19937;-69
2023/12/29 05:37:10;;;;;;;;;;;9.70;99.90;;;;;;4980223;28;20029;-67
2023/12/29 05:39:36;;;;;;;;;;;9.80;99.90;;;;;;4934426;28;19933;-69
2023/12/29 05:42:02;;;;;;;;;;;9.80;99.90;;;;;;4976148;28;19925;-69
2023/12/29 05:44:28;;;;;;;;;;;9.80;99.90;;;;;;4950217;28;19929;-69
2023/12/29 05:46:54;;;;;;;;;;;9.80;99.90;;;;;;4979626;28;19951;-68
2023/12/29 05:49:24;;;;;;;;;;;9.80;99.90;;;;;;4945313;28;19930;-68
2023/12/29 05:51:50;;;;;;;;;;;9.80;99.90;;;;;;4980390;28;19956;-68
2023/12/29 05:54:16;;;;;;;;;;;9.80;99.90;;;;;;4951695;28;20950;-68
2023/12/29 05:56:41;;;;;;;;;;;9.70;99.90;;;;;;5003844;28;19928;-68
2023/12/29 05:59:07;;;;;;;;;;;9.80;99.90;;;;;;4975853;28;19925;-68
2023/12/29 06:01:33;;;;;;;;;;;9.80;99.90;;;;;;4991815;28;19936;-69
2023/12/29 06:03:59;;;;;;;;;;;9.80;99.90;;;;;;4974717;28;21022;-68
2023/12/29 06:06:25;;;;;;;;;;;9.80;99.90;;;;;;4995559;28;19925;-68
2023/12/29 06:08:51;;;;;;;;;;;9.80;99.90;;;;;;4954326;28;19936;-69
2023/12/29 06:11:17;;;;;;;;;;;9.80;99.90;;;;;;4974208;28;19925;-69
2023/12/29 06:13:43;;;;;;;;;;;9.70;99.90;;;;;;4950869;28;19925;-68
2023/12/29 06:16:09;;;;;;;;;;;9.70;99.90;;;;;;4982852;28;19925;-68
2023/12/29 06:18:34;;;;;;;;;;;9.70;99.90;;;;;;4950932;28;19956;-67
2023/12/29 06:21:01;;;;;;;;;;;9.60;99.90;;;;;;4976687;28;19936;-68
2023/12/29 06:23:27;;;;;;;;;;;9.60;99.90;;;;;;4943158;28;19925;-68
2023/12/29 06:25:54;;;;;;;;;;;9.50;99.90;;;;;;4975450;28;19931;-72
2023/12/29 06:28:20;;;;;;;;;;;9.50;99.90;;;;;;4949180;28;19940;-68
2023/12/29 06:30:46;;;;;;;;;;;9.50;99.90;;;;;;4979138;28;19933;-68
2023/12/29 06:33:12;;;;;;;;;;;9.40;99.90;;;;;;4958801;28;19925;-68
2023/12/29 06:35:38;;;;;;;;;;;9.40;99.90;;;;;;5006668;28;19925;-68
2023/12/29 06:38:04;;;;;;;;;;;9.30;99.90;;;;;;4950184;28;20094;-69
2023/12/29 06:40:30;;;;;;;;;;;9.20;99.90;;;;;;4981018;28;20032;-71
2023/12/29 06:42:58;;;;;;;;;;;9.20;99.90;;;;;;4952108;28;20356;-69
2023/12/29 06:45:24;;;;;;;;;;;9.30;99.90;;;;;;4980311;28;19925;-70
2023/12/29 06:47:50;;;;;;;;;;;9.20;99.90;;;;;;4956596;28;20971;-69
2023/12/29 06:50:16;;;;;;;;;;;9.30;99.90;;;;;;4980287;28;19925;-70
2023/12/29 06:52:42;;;;;;;;;;;9.30;99.90;;;;;;4994163;28;19928;-70
2023/12/29 06:55:08;;;;;;;;;;;9.20;99.90;;;;;;4952906;28;19925;-70
2023/12/29 06:57:34;;;;;;;;;;;9.20;99.90;;;;;;4983433;28;19925;-70
2023/12/29 07:00:00;;;;;;;;;;;9.10;99.90;;;;;;4952419;28;19929;-71
2023/12/29 07:02:26;;;;;;;;;;;9.20;99.90;;;;;;4997462;28;19932;-70
2023/12/29 07:04:52;;;;;;;;;;;9.20;99.90;;;;;;4954191;28;20512;-71
2023/12/29 07:07:18;;;;;;;;;;;9.20;99.90;;;;;;5000186;28;19929;-70
2023/12/29 07:09:44;;;;;;;;;;;9.20;99.90;;;;;;4987221;28;20947;-70
2023/12/29 07:12:10;;;;;;;;;;;9.20;99.90;;;;;;4981780;28;20002;-70
2023/12/29 07:14:36;;;;;;;;;;;9.20;99.90;;;;;;4941841;28;19931;-70
2023/12/29 07:17:02;;;;;;;;;;;9.10;99.90;;;;;;4978831;28;19929;-69
2023/12/29 07:19:36;;;;;;;;;;;9.10;99.90;;;;;;4968255;28;19924;-71
2023/12/29 07:22:08;;;;;;;;;;;9.20;99.90;;;;;;4984336;28;19940;-71
2023/12/29 07:24:35;;;;;;;;;;;9.20;99.90;;;;;;4945846;28;19925;-69
2023/12/29 07:27:01;;;;;;;;;;;9.20;99.90;;;;;;4982261;28;19935;-69
2023/12/29 07:29:27;;;;;;;;;;;9.20;99.90;;;;;;4951084;28;19925;-68
2023/12/29 07:31:53;;;;;;;;;;;9.20;99.90;;;;;;4982273;28;19964;-67
2023/12/29 07:34:19;;;;;;;;;;;9.20;99.90;;;;;;4968801;28;20823;-68
2023/12/29 07:36:45;;;;;;;;;;;9.30;99.90;;;;;;4987262;28;19925;-69
2023/12/29 07:39:11;;;;;;;;;;;9.30;99.90;;;;;;4969374;28;19936;-68
2023/12/29 07:41:41;;;;;;;;;;;9.30;99.90;;;;;;4994463;28;19940;-68
2023/12/29 07:44:10;;;;;;;;;;;9.40;99.90;;;;;;4941079;28;19929;-68
2023/12/29 07:46:36;;;;;;;;;;;9.40;99.90;;;;;;4978200;28;19929;-68
2023/12/29 07:49:02;;;;;;;;;;;9.40;99.90;;;;;;4958228;28;21382;-70
2023/12/29 07:51:28;;;;;;;;;;;9.50;99.90;;;;;;4983203;28;20277;-70
2023/12/29 07:53:54;;;;;;;;;;;9.40;99.90;;;;;;4958732;28;19936;-68
2023/12/29 07:56:20;;;;;;;;;;;9.50;99.90;;;;;;4982048;28;19936;-69
2023/12/29 07:58:46;;;;;;;;;;;9.40;99.90;;;;;;4952421;28;19925;-68
2023/12/29 08:01:12;;;;;;;;;;;9.40;99.90;;;;;;4980326;28;20883;-68
2023/12/29 08:03:38;;;;;;;;;;;9.40;99.90;;;;;;4950319;28;19932;-69
2023/12/29 08:06:04;;;;;;;;;;;9.30;99.90;;;;;;4981405;28;20598;-69
2023/12/29 08:08:30;;;;;;;;;;;9.40;99.90;;;;;;4953413;28;20009;-69
2023/12/29 08:10:56;;;;;;;;;;;9.50;99.90;;;;;;4988691;28;19931;-71
2023/12/29 08:13:21;;;;;;;;;;;9.60;99.90;;;;;;4968312;28;19955;-74
2023/12/29 08:15:47;;;;;;;;;;;9.40;99.90;;;;;;4987519;28;20064;-72
2023/12/29 08:18:13;;;;;;;;;;;9.40;99.90;;;;;;4951244;28;19925;-71
2023/12/29 08:20:39;;;;;;;;;;;9.30;99.90;;;;;;4982755;28;19929;-70
2023/12/29 08:23:05;;;;;;;;;;;9.20;99.90;;;;;;4955212;28;19929;-71
2023/12/29 08:25:31;;;;;;;;;;;9.20;99.90;;;;;;4980461;28;20421;-71
2023/12/29 08:27:57;;;;;;;;;;;9.10;99.90;;;;;;4955018;28;19932;-71
2023/12/29 08:30:23;;;;;;;;;;;9.10;99.90;;;;;;4994266;28;19929;-71
2023/12/29 08:32:49;;;;;;;;;;;9.10;99.90;;;;;;4954253;28;19929;-74
2023/12/29 08:35:15;;;;;;;;;;;9.10;99.90;;;;;;5012722;28;19925;-71
2023/12/29 08:37:41;;;;;;;;;;;9.20;99.90;;;;;;4980074;28;19956;-72
2023/12/29 08:40:10;;;;;;;;;;;9.30;99.90;;;;;;4938910;28;19924;-73
2023/12/29 08:42:36;;;;;;;;;;;9.30;99.90;;;;;;4991719;28;19932;-75
2023/12/29 08:45:03;;;;;;;;;;;9.20;99.90;;;;;;4971410;28;19924;-76
2023/12/29 08:47:29;;;;;;;;;;;9.10;99.90;;;;;;4998343;28;19951;-77
2023/12/29 08:49:55;;;;;;;;;;;9.00;99.90;;;;;;4972754;28;19925;-75
2023/12/29 08:52:21;;;;;;;;;;;9.00;99.90;;;;;;5010153;28;20567;-76
2023/12/29 08:54:47;;;;;;;;;;;9.00;99.90;;;;;;4975081;28;19999;-76
2023/12/29 08:57:13;;;;;;;;;;;9.00;99.90;;;;;;4994908;28;19929;-79
2023/12/29 08:59:39;;;;;;;;;;;8.90;99.90;;;;;;4974610;28;19924;-78
2023/12/29 09:02:06;;;;;;;;;;;8.80;99.90;;;;;;4987684;28;19979;-76
2023/12/29 09:04:32;;;;;;;;;;;8.80;99.90;;;;;;4971195;28;19929;-77
2023/12/29 09:06:58;;;;;;;;;;;8.80;99.90;;;;;;5000247;28;19925;-75
2023/12/29 09:09:24;;;;;;;;;;;8.80;99.90;;;;;;4957815;28;19925;-74
2023/12/29 09:11:49;;;;;;;;;;;8.90;99.90;;;;;;4991283;28;20004;-73
2023/12/29 09:14:16;;;;;;;;;;;8.90;99.90;;;;;;4943124;28;19931;-72
2023/12/29 09:16:42;;;;;;;;;;;9.00;99.90;;;;;;4976990;28;19925;-71
2023/12/29 09:19:08;;;;;;;;;;;9.00;99.90;;;;;;4961737;28;19996;-72
2023/12/29 09:21:34;;;;;;;;;;;9.00;99.90;;;;;;4988408;28;19929;-71
2023/12/29 09:24:00;;;;;;;;;;;9.10;99.90;;;;;;4977979;28;20074;-72
2023/12/29 09:26:26;;;;;;;;;;;9.10;99.90;;;;;;4987446;28;19932;-74
2023/12/29 09:28:52;;;;;;;;;;;9.20;99.90;;;;;;4965811;28;19925;-72
2023/12/29 09:31:18;;;;;;;;;;;9.20;99.90;;;;;;4990713;28;19925;-69
2023/12/29 09:33:44;;;;;;;;;;;9.30;99.90;;;;;;4949456;28;20067;-69
2023/12/29 09:36:10;;;;;;;;;;;9.30;99.90;;;;;;4987713;28;19999;-69
2023/12/29 09:38:37;;;;;;;;;;;9.40;99.90;;;;;;4974189;28;19924;-71
2023/12/29 09:41:05;;;;;;;;;;;9.40;99.90;;;;;;5007705;28;20446;-68
2023/12/29 09:43:31;;;;;;;;;;;9.40;99.90;;;;;;4975467;28;19924;-69
2023/12/29 09:45:58;;;;;;;;;;;9.50;99.90;;;;;;4997819;28;19936;-69
2023/12/29 09:48:26;;;;;;;;;;;9.50;99.90;;;;;;4977485;28;19947;-70
2023/12/29 09:50:53;;;;;;;;;;;9.50;99.90;;;;;;4998683;28;20191;-69
2023/12/29 09:53:22;;;;;;;;;;;9.50;99.90;;;;;;4952468;28;19960;-69
2023/12/29 09:55:49;;;;;;;;;;;9.60;99.90;;;;;;4981440;28;19932;-69
2023/12/29 09:58:15;;;;;;;;;;;9.60;99.90;;;;;;4938876;28;19924;-68
2023/12/29 10:00:42;;;;;;;;;;;9.60;99.90;;;;;;4997553;28;19940;-69
2023/12/29 10:03:08;;;;;;;;;;;9.60;99.90;;;;;;4942871;28;19937;-69
2023/12/29 10:05:34;;;;;;;;;;;9.70;99.90;;;;;;4965160;28;19936;-69
2023/12/29 10:08:03;;;;;;;;;;;9.70;99.90;;;;;;4954819;28;21127;-68
2023/12/29 10:10:30;;;;;;;;;;;9.70;99.90;;;;;;4965068;28;20455;-69
2023/12/29 10:12:56;;;;;;;;;;;9.80;99.90;;;;;;4950998;28;19952;-70
2023/12/29 10:15:47;;;;;;;;;;;9.80;99.90;;;;;;4980739;28;19929;-69
2023/12/29 10:18:18;;;;;;;;;;;9.80;99.90;;;;;;4950893;28;19940;-67
2023/12/29 10:20:57;;;;;;;;;;;9.80;99.90;;;;;;4972580;28;19940;-68
2023/12/29 10:23:26;;;;;;;;;;;9.80;99.90;;;;;;4977985;28;19932;-68
2023/12/29 10:25:52;;;;;;;;;;;9.90;99.90;;;;;;4970192;28;19941;-69
2023/12/29 10:28:18;;;;;;;;;;;9.80;99.90;;;;;;4948592;28;19929;-68
2023/12/29 10:30:44;;;;;;;;;;;9.80;99.90;;;;;;4966154;28;19936;-68
2023/12/29 10:33:10;;;;;;;;;;;9.80;99.90;;;;;;4945400;28;19931;-69
2023/12/29 10:35:37;;;;;;;;;;;9.90;99.90;;;;;;4980741;28;20033;-68
2023/12/29 10:38:12;;;;;;;;;;;9.90;99.90;;;;;;4948847;28;19999;-68
2023/12/29 10:40:39;;;;;;;;;;;10.00;99.90;;;;;;4982876;28;19936;-69
2023/12/29 10:43:07;;;;;;;;;;;9.90;99.90;;;;;;4948506;28;19956;-67
2023/12/29 10:45:33;;;;;;;;;;;10.00;99.90;;;;;;4967108;28;19929;-68
2023/12/29 10:48:00;;;;;;;;;;;10.00;99.90;;;;;;4960980;28;19932;-67
2023/12/29 10:50:27;;;;;;;;;;;10.00;99.90;;;;;;4975555;28;20963;-68
2023/12/29 10:53:12;;;;;;;;;;;10.00;99.90;;;;;;4948805;28;19925;-68
2023/12/29 10:55:38;;;;;;;;;;;10.00;99.90;;;;;;4988619;28;20446;-67
2023/12/29 10:58:05;;;;;;;;;;;10.00;99.90;;;;;;4955823;28;19931;-68
2023/12/29 11:00:32;;;;;;;;;;;10.10;99.90;;;;;;5005522;28;20765;-69
2023/12/29 11:02:59;;;;;;;;;;;10.10;99.90;;;;;;4952058;28;19936;-70
2023/12/29 11:05:26;;;;;;;;;;;10.20;99.90;;;;;;4991256;28;19928;-69
2023/12/29 11:07:54;;;;;;;;;;;10.30;99.90;;;;;;4931526;28;19925;-67
2023/12/29 11:10:21;;;;;;;;;;;10.30;99.90;;;;;;4974255;28;20565;-67
2023/12/29 11:12:48;;;;;;;;;;;10.20;99.90;;;;;;4957271;28;19925;-68
2023/12/29 11:15:15;;;;;;;;;;;10.20;99.90;;;;;;4966888;28;19929;-68
2023/12/29 11:17:49;;;;;;;;;;;10.20;99.90;;;;;;4978646;28;20292;-67
2023/12/29 11:20:16;;;;;;;;;;;10.30;99.90;;;;;;4946560;28;20525;-68
2023/12/29 11:22:43;;;;;;;;;;;10.30;99.90;;;;;;4973620;28;20376;-68
2023/12/29 11:25:09;;;;;;;;;;;10.20;99.90;;;;;;4983034;28;19925;-68
2023/12/29 11:27:35;;;;;;;;;;;10.20;99.90;;;;;;4983488;28;19925;-67
2023/12/29 11:30:02;;;;;;;;;;;10.20;99.90;;;;;;4957842;28;19940;-68
2023/12/29 11:32:42;;;;;;;;;;;10.10;99.90;;;;;;4982268;28;20467;-67
2023/12/29 11:35:13;;;;;;;;;;;10.10;99.90;;;;;;4916790;28;19925;-69
2023/12/29 11:37:58;;;;;;;;;;;10.00;99.90;;;;;;4975842;28;20710;-67
2023/12/29 11:40:31;;;;;;;;;;;9.90;99.90;;;;;;4949059;28;19925;-70
2023/12/29 11:42:59;;;;;;;;;;;9.90;99.90;;;;;;4950730;28;19928;-68
2023/12/29 11:45:28;;;;;;;;;;;9.90;99.90;;;;;;4975138;28;19925;-68
2023/12/29 11:47:56;;;;;;;;;;;9.80;99.90;;;;;;4949739;28;21005;-68
2023/12/29 11:50:36;;;;;;;;;;;9.80;99.90;;;;;;4963247;28;19932;-66
2023/12/29 11:53:02;;;;;;;;;;;9.80;99.90;;;;;;4952389;28;20080;-67
2023/12/29 11:55:38;;;;;;;;;;;9.80;99.90;;;;;;4990492;28;19921;-67
2023/12/29 11:58:04;;;;;;;;;;;9.70;99.90;;;;;;4949179;28;20065;-68
2023/12/29 12:00:40;;;;;;;;;;;9.70;99.90;;;;;;4964037;28;19932;-67
2023/12/29 12:03:13;;;;;;;;;;;9.60;99.90;;;;;;4952050;28;19934;-67
2023/12/29 12:05:47;;;;;;;;;;;9.60;99.90;;;;;;4962147;28;20506;-67
2023/12/29 12:08:26;;;;;;;;;;;9.50;99.90;;;;;;4948712;28;19929;-66
2023/12/29 12:10:52;;;;;;;;;;;9.50;99.90;;;;;;4969504;28;19947;-67
2023/12/29 12:13:41;;;;;;;;;;;9.50;99.90;;;;;;4985393;28;20482;-69
2023/12/29 12:16:07;;;;;;;;;;;9.50;99.90;;;;;;4977249;28;19936;-68
2023/12/29 12:18:33;;;;;;;;;;;9.50;99.90;;;;;;4949559;28;19948;-69
2023/12/29 12:21:00;;;;;;;;;;;9.60;99.90;;;;;;4975862;28;19929;-68
2023/12/29 12:23:28;;;;;;;;;;;9.60;99.90;;;;;;4943994;28;19929;-68
2023/12/29 12:25:57;;;;;;;;;;;9.60;99.90;;;;;;4963901;28;20016;-69
2023/12/29 12:28:23;;;;;;;;;;;9.70;99.90;;;;;;4949149;28;19953;-69
2023/12/29 12:30:49;;;;;;;;;;;9.70;99.90;;;;;;4977920;28;19929;-68
2023/12/29 12:33:15;;;;;;;;;;;9.70;99.90;;;;;;4952418;28;20417;-67
2023/12/29 12:35:41;;;;;;;;;;;9.70;99.90;;;;;;4985102;28;19925;-67
2023/12/29 12:38:06;;;;;;;;;;;9.70;99.90;;;;;;4951280;28;19934;-67
2023/12/29 12:40:33;;;;;;;;;;;9.70;99.90;;;;;;4978241;28;19925;-68
2023/12/29 12:42:59;;;;;;;;;;;9.70;99.90;;;;;;4950365;28;20248;-67
2023/12/29 12:45:26;;;;;;;;;;;9.70;99.90;;;;;;4981485;28;20624;-68
2023/12/29 12:47:54;;;;;;;;;;;9.70;99.90;;;;;;4985412;28;19925;-68
2023/12/29 12:50:21;;;;;;;;;;;9.70;99.90;;;;;;4984479;28;19936;-69
2023/12/29 12:52:47;;;;;;;;;;;9.70;99.90;;;;;;4967006;28;20512;-67
2023/12/29 12:55:14;;;;;;;;;;;9.80;99.90;;;;;;4997883;28;20572;-67
2023/12/29 12:57:40;;;;;;;;;;;10.00;99.90;;;;;;4984850;28;19925;-68
2023/12/29 13:00:09;;;;;;;;;;;10.10;99.90;;;;;;4951249;28;19929;-67
2023/12/29 13:02:35;;;;;;;;;;;9.90;99.90;;;;;;4979735;28;19933;-67
2023/12/29 13:05:07;;;;;;;;;;;9.80;99.90;;;;;;4960607;28;19929;-70
2023/12/29 13:07:34;;;;;;;;;;;10.20;99.90;;;;;;4982479;28;19929;-67
2023/12/29 13:10:01;;;;;;;;;;;10.50;99.90;;;;;;4950201;28;19932;-68
2023/12/29 13:12:30;;;;;;;;;;;10.50;99.90;;;;;;5010310;28;19933;-68
2023/12/29 13:15:08;;;;;;;;;;;10.40;99.90;;;;;;4954277;28;20413;-68
2023/12/29 13:17:34;;;;;;;;;;;10.00;99.90;;;;;;4995793;28;19936;-68
2023/12/29 13:20:00;;;;;;;;;;;9.90;99.90;;;;;;4937172;28;19929;-68
2023/12/29 13:22:28;;;;;;;;;;;9.70;99.90;;;;;;5010911;28;21086;-68
2023/12/29 13:24:54;;;;;;;;;;;9.80;99.90;;;;;;4946187;28;19925;-67
2023/12/29 13:27:21;;;;;;;;;;;9.70;99.90;;;;;;4980095;28;19932;-65
2023/12/29 13:29:47;;;;;;;;;;;9.70;99.90;;;;;;4929396;28;19956;-68
2023/12/29 13:32:20;;;;;;;;;;;9.60;99.90;;;;;;4977280;28;19925;-67
2023/12/29 13:35:05;;;;;;;;;;;9.50;99.90;;;;;;4949001;28;20916;-67
2023/12/29 13:37:33;;;;;;;;;;;9.40;99.90;;;;;;4977584;28;20965;-68
2023/12/29 13:40:03;;;;;;;;;;;9.40;99.90;;;;;;4949447;28;19925;-68
2023/12/29 13:42:31;;;;;;;;;;;9.40;99.90;;;;;;4993186;28;21111;-69
2023/12/29 13:44:58;;;;;;;;;;;9.20;99.90;;;;;;4978921;28;19987;-67
2023/12/29 13:47:24;;;;;;;;;;;9.20;99.90;;;;;;5008369;28;21036;-69
2023/12/29 13:49:51;;;;;;;;;;;9.10;99.90;;;;;;4945776;28;19925;-68
2023/12/29 13:52:18;;;;;;;;;;;9.10;99.90;;;;;;4972622;28;19932;-68
2023/12/29 13:54:44;;;;;;;;;;;9.10;99.90;;;;;;4975069;28;19932;-68
2023/12/29 13:57:11;;;;;;;;;;;9.10;99.90;;;;;;4975896;28;19932;-67
2023/12/29 13:59:37;;;;;;;;;;;9.00;99.90;;;;;;4980169;28;19925;-66
2023/12/29 14:02:18;;;;;;;;;;;9.00;99.90;;;;;;4980764;28;21073;-67
2023/12/29 14:04:45;;;;;;;;;;;9.00;99.90;;;;;;4931538;28;19925;-67
2023/12/29 14:07:11;;;;;;;;;;;9.00;99.90;;;;;;4973114;28;20002;-67
2023/12/29 14:09:37;;;;;;;;;;;9.00;99.90;;;;;;4945457;28;19929;-68
2023/12/29 14:12:03;;;;;;;;;;;9.00;99.90;;;;;;4978786;28;19936;-67
2023/12/29 14:14:29;;;;;;;;;;;9.00;99.90;;;;;;4942674;28;19944;-67
2023/12/29 14:16:55;;;;;;;;;;;9.10;99.90;;;;;;4974232;28;19976;-67
2023/12/29 14:19:21;;;;;;;;;;;9.00;99.90;;;;;;4944961;28;19925;-65
2023/12/29 14:21:50;;;;;;;;;;;9.00;99.90;;;;;;4974550;28;19936;-66
2023/12/29 14:24:16;;;;;;;;;;;9.00;99.90;;;;;;4934641;28;19933;-69
2023/12/29 14:27:02;;;;;;;;;;;9.00;99.90;;;;;;4973331;28;19940;-68
2023/12/29 14:29:29;;;;;;;;;;;8.90;99.90;;;;;;4972617;28;20050;-69